createdAt,value
2023-01-19T00:00:40.675Z,14.35
2023-01-19T00:03:16.402Z,15.60
2023-01-19T00:05:46.534Z,14.67
2023-01-19T00:08:17.398Z,14.85
2023-01-19T00:10:48.891Z,14.18
2023-01-19T00:13:16.207Z,12.63
2023-01-19T00:15:44.927Z,12.75
2023-01-19T00:18:12.412Z,11.80
2023-01-19T00:20:41.794Z,11.80
2023-01-19T00:23:09.893Z,11.70
2023-01-19T00:25:44.844Z,11.05
2023-01-19T00:28:18.688Z,11.00
2023-01-19T00:30:46.201Z,11.73
2023-01-19T00:33:15.062Z,14.00
2023-01-19T00:35:46.215Z,16.42
2023-01-19T00:38:13.404Z,18.70
2023-01-19T00:40:44.865Z,20.83
2023-01-19T00:43:15.521Z,20.85
2023-01-19T00:45:43.695Z,22.33
2023-01-19T00:48:10.680Z,19.20
2023-01-19T00:50:39.356Z,18.85
2023-01-19T00:53:06.458Z,19.27
2023-01-19T00:55:36.407Z,19.75
2023-01-19T00:58:25.720Z,19.67
2023-01-19T01:00:54.014Z,18.20
2023-01-19T01:03:21.847Z,16.20
2023-01-19T01:05:49.785Z,13.07
2023-01-19T01:08:16.969Z,12.65
2023-01-19T01:10:44.246Z,11.65
2023-01-19T01:13:22.194Z,8.30
2023-01-19T01:15:52.651Z,8.70
2023-01-19T01:18:20.454Z,9.05
2023-01-19T01:20:47.529Z,11.52
2023-01-19T01:23:14.954Z,11.15
2023-01-19T01:25:42.925Z,11.02
2023-01-19T01:28:10.866Z,10.05
2023-01-19T01:30:41.331Z,9.98
2023-01-19T01:33:09.403Z,11.85
2023-01-19T01:35:36.947Z,8.30
2023-01-19T01:38:04.491Z,7.97
2023-01-19T01:40:31.708Z,7.40
2023-01-19T01:42:59.085Z,7.15
2023-01-19T01:45:34.139Z,6.65
2023-01-19T01:48:27.316Z,7.03
2023-01-19T01:51:21.909Z,7.15
2023-01-19T01:54:19.603Z,7.35
2023-01-19T01:56:56.435Z,7.80
2023-01-19T01:59:39.421Z,7.53
2023-01-19T02:02:48.549Z,6.60
2023-01-19T02:05:25.536Z,5.45
2023-01-19T02:08:16.256Z,4.90
2023-01-19T02:11:03.646Z,5.22
2023-01-19T02:13:33.315Z,4.45
2023-01-19T02:16:20.470Z,4.30
2023-01-19T02:18:47.843Z,4.47
2023-01-19T02:21:44.159Z,4.60
2023-01-19T02:24:11.700Z,4.03
2023-01-19T02:26:47.653Z,3.97
2023-01-19T02:29:21.436Z,3.97
2023-01-19T02:31:49.250Z,3.70
2023-01-19T02:34:35.982Z,4.70
2023-01-19T02:37:15.496Z,3.20
2023-01-19T02:39:51.486Z,3.10
2023-01-19T02:42:33.736Z,4.00
2023-01-19T02:45:06.959Z,4.20
2023-01-19T02:47:44.490Z,4.82
2023-01-19T02:50:32.131Z,4.70
2023-01-19T02:53:12.971Z,3.72
2023-01-19T02:55:40.940Z,3.85
2023-01-19T02:58:44.636Z,3.65
2023-01-19T03:01:36.570Z,3.17
2023-01-19T03:04:32.026Z,2.92
2023-01-19T03:07:03.495Z,2.30
2023-01-19T03:09:41.641Z,2.13
2023-01-19T03:12:38.208Z,2.10
2023-01-19T03:15:17.484Z,1.92
2023-01-19T03:17:48.835Z,1.45
2023-01-19T03:20:20.662Z,1.63
2023-01-19T03:22:52.875Z,1.30
2023-01-19T03:25:23.684Z,1.13
2023-01-19T03:27:54.455Z,1.58
2023-01-19T03:30:27.725Z,2.00
2023-01-19T03:33:09.676Z,1.98
2023-01-19T03:35:40.954Z,1.98
2023-01-19T03:38:15.002Z,1.55
2023-01-19T03:40:44.820Z,1.65
2023-01-19T03:43:13.556Z,1.30
2023-01-19T03:45:43.283Z,1.33
2023-01-19T03:48:12.617Z,1.10
2023-01-19T03:50:39.608Z,1.00
2023-01-19T03:53:13.021Z,1.10
2023-01-19T03:55:43.404Z,1.00
2023-01-19T03:58:10.584Z,1.33
2023-01-19T04:00:37.941Z,1.15
2023-01-19T04:03:06.987Z,1.58
2023-01-19T04:05:34.014Z,0.85
2023-01-19T04:08:01.282Z,1.30
2023-01-19T04:10:28.626Z,1.80
2023-01-19T04:13:00.438Z,1.40
2023-01-19T04:15:29.021Z,1.83
2023-01-19T04:17:58.866Z,1.73
2023-01-19T04:20:28.431Z,1.75
2023-01-19T04:23:00.332Z,1.30
2023-01-19T04:25:28.811Z,1.35
2023-01-19T04:27:58.085Z,1.52
2023-01-19T04:30:26.528Z,2.00
2023-01-19T04:32:55.692Z,1.88
2023-01-19T04:35:24.100Z,2.17
2023-01-19T04:37:51.275Z,2.40
2023-01-19T04:40:19.069Z,2.70
2023-01-19T04:42:46.505Z,3.00
2023-01-19T04:45:14.557Z,2.50
2023-01-19T04:47:42.953Z,2.80
2023-01-19T04:50:11.381Z,2.50
2023-01-19T04:52:38.982Z,3.13
2023-01-19T04:55:08.276Z,2.05
2023-01-19T04:57:35.697Z,1.42
2023-01-19T05:00:03.255Z,1.73
2023-01-19T05:02:30.760Z,2.33
2023-01-19T05:04:57.762Z,2.50
2023-01-19T05:07:25.228Z,2.13
2023-01-19T05:09:52.598Z,2.22
2023-01-19T05:12:20.215Z,3.08
2023-01-19T05:14:47.276Z,3.30
2023-01-19T05:17:14.323Z,3.65
2023-01-19T05:19:41.643Z,5.60
2023-01-19T05:22:08.776Z,3.65
2023-01-19T05:24:35.795Z,4.82
2023-01-19T05:27:03.160Z,4.30
2023-01-19T05:29:30.336Z,4.32
2023-01-19T05:31:58.554Z,4.70
2023-01-19T05:34:25.792Z,4.53
2023-01-19T05:36:52.841Z,4.93
2023-01-19T05:39:22.200Z,4.28
2023-01-19T05:41:49.143Z,3.97
2023-01-19T05:44:15.986Z,4.00
2023-01-19T05:46:43.010Z,3.88
2023-01-19T05:49:10.274Z,5.15
2023-01-19T05:51:40.715Z,5.43
2023-01-19T05:54:09.114Z,6.35
2023-01-19T05:56:37.276Z,4.80
2023-01-19T05:59:10.364Z,4.55
2023-01-19T06:01:39.911Z,4.28
2023-01-19T06:04:07.785Z,3.08
2023-01-19T06:06:35.200Z,3.00
2023-01-19T06:09:06.395Z,2.45
2023-01-19T06:11:34.201Z,2.92
2023-01-19T06:14:01.432Z,3.75
2023-01-19T06:16:28.600Z,3.90
2023-01-19T06:18:56.324Z,3.28
2023-01-19T06:21:24.364Z,4.53
2023-01-19T06:23:52.248Z,4.55
2023-01-19T06:26:19.223Z,4.28
2023-01-19T06:28:47.360Z,4.70
2023-01-19T06:31:15.196Z,5.35
2023-01-19T06:33:42.301Z,5.45
2023-01-19T06:36:10.073Z,6.15
2023-01-19T06:38:37.108Z,5.82
2023-01-19T06:41:05.078Z,6.00
2023-01-19T06:43:34.396Z,5.20
2023-01-19T06:46:01.532Z,5.30
2023-01-19T06:48:28.632Z,4.00
2023-01-19T06:50:58.412Z,5.13
2023-01-19T06:53:27.900Z,4.20
2023-01-19T06:56:03.128Z,4.38
2023-01-19T07:01:08.319Z,4.32
2023-01-19T07:03:37.146Z,4.63
2023-01-19T07:06:07.094Z,5.07
2023-01-19T07:08:35.719Z,5.13
2023-01-19T07:11:24.423Z,4.70
2023-01-19T07:13:59.840Z,6.10
2023-01-19T07:16:27.038Z,6.07
2023-01-19T07:18:57.398Z,4.93
2023-01-19T07:21:24.810Z,4.25
2023-01-19T07:23:52.736Z,1.80
2023-01-19T07:26:22.196Z,1.33
2023-01-19T07:28:50.541Z,1.70
2023-01-19T07:31:18.504Z,1.95
2023-01-19T07:33:46.376Z,1.50
2023-01-19T07:36:14.135Z,1.85
2023-01-19T07:38:42.459Z,8.95
2023-01-19T07:41:10.428Z,3.20
2023-01-19T07:43:39.088Z,3.25
2023-01-19T07:46:09.454Z,3.67
2023-01-19T07:48:36.609Z,3.17
2023-01-19T07:51:11.056Z,5.18
2023-01-19T07:53:40.199Z,5.40
2023-01-19T07:56:08.286Z,3.53
2023-01-19T07:58:36.813Z,1.40
2023-01-19T08:01:14.929Z,1.58
2023-01-19T08:03:43.375Z,2.42
2023-01-19T08:11:27.611Z,2.60
2023-01-19T08:13:59.474Z,1.45
2023-01-19T08:16:28.739Z,1.50
2023-01-19T08:18:56.257Z,2.10
2023-01-19T08:24:00.568Z,2.22
2023-01-19T08:26:31.419Z,2.13
2023-01-19T08:29:22.916Z,2.10
2023-01-19T08:31:50.752Z,3.28
2023-01-19T08:34:18.039Z,4.32
2023-01-19T08:36:45.340Z,5.05
2023-01-19T08:39:15.434Z,4.70
2023-01-19T08:41:44.021Z,5.18
2023-01-19T08:48:08.793Z,5.00
2023-01-19T08:50:36.244Z,5.10
2023-01-19T08:53:06.619Z,4.53
2023-01-19T08:55:36.179Z,4.30
2023-01-19T08:58:07.792Z,4.47
2023-01-19T09:00:38.179Z,4.78
2023-01-19T09:03:20.215Z,3.70
2023-01-19T09:05:47.961Z,4.47
2023-01-19T09:08:15.528Z,3.28
2023-01-19T09:10:52.369Z,3.70
2023-01-19T09:13:40.590Z,3.55
2023-01-19T09:16:12.118Z,4.20
2023-01-19T09:18:40.099Z,3.75
2023-01-19T09:21:07.484Z,4.82
2023-01-19T09:23:34.834Z,2.17
2023-01-19T09:26:06.190Z,3.50
2023-01-19T09:28:33.609Z,4.32
2023-01-19T09:31:11.556Z,3.85
2023-01-19T09:33:39.831Z,3.53
2023-01-19T09:36:09.656Z,2.78
2023-01-19T09:38:39.948Z,2.50
2023-01-19T09:44:51.415Z,2.60
2023-01-19T09:47:23.861Z,2.53
2023-01-19T09:50:32.755Z,2.25
2023-01-19T09:53:40.353Z,1.88
2023-01-19T09:56:55.295Z,1.13
2023-01-19T09:59:42.157Z,1.70
2023-01-19T10:03:08.947Z,2.22
2023-01-19T10:09:29.345Z,3.05
2023-01-19T10:12:19.054Z,2.92
2023-01-19T10:15:13.970Z,2.45
2023-01-19T10:17:49.938Z,2.08
2023-01-19T10:20:40.972Z,2.80
2023-01-19T10:23:29.624Z,3.30
2023-01-19T10:26:56.874Z,3.60
2023-01-19T10:29:40.088Z,4.20
2023-01-19T10:32:44.776Z,3.60
2023-01-19T10:35:25.330Z,3.38
2023-01-19T10:38:14.372Z,2.67
2023-01-19T10:41:18.555Z,2.80
2023-01-19T10:43:47.510Z,3.50
2023-01-19T10:46:21.122Z,3.30
2023-01-19T10:48:54.860Z,4.57
2023-01-19T10:51:23.907Z,4.03
2023-01-19T10:54:05.730Z,3.72
2023-01-19T10:56:37.516Z,3.63
2023-01-19T10:59:07.898Z,3.30
2023-01-19T11:01:37.640Z,2.20
2023-01-19T11:04:28.462Z,2.35
2023-01-19T11:07:16.619Z,2.35
2023-01-19T11:09:44.147Z,2.58
2023-01-19T11:12:22.705Z,3.15
2023-01-19T11:14:53.947Z,2.10
2023-01-19T11:17:27.556Z,2.13
2023-01-19T11:20:02.277Z,2.05
2023-01-19T11:22:32.888Z,2.53
2023-01-19T11:25:05.392Z,2.33
2023-01-19T11:28:04.381Z,2.33
2023-01-19T11:30:31.599Z,2.20
2023-01-19T11:32:58.763Z,2.40
2023-01-19T11:35:34.798Z,2.72
2023-01-19T11:46:01.562Z,2.08
2023-01-19T11:59:13.824Z,1.45
2023-01-19T12:27:59.639Z,4.43
2023-01-19T12:30:29.849Z,4.07
2023-01-19T12:49:12.287Z,3.20
2023-01-19T12:51:39.325Z,3.60
2023-01-19T12:59:27.731Z,3.00
2023-01-19T13:13:18.602Z,2.80
2023-01-19T13:21:09.297Z,2.80
2023-01-19T13:37:02.467Z,10.55
2023-01-19T13:39:46.058Z,3.28
2023-01-19T14:09:27.819Z,3.80
2023-01-19T14:14:30.232Z,2.97
2023-01-19T14:16:57.306Z,2.95
2023-01-19T14:19:24.363Z,3.60
2023-01-19T14:22:03.894Z,3.08
2023-01-19T14:24:35.308Z,2.65
2023-01-19T14:27:24.424Z,6.30
2023-01-19T14:29:55.084Z,2.90
2023-01-19T14:32:28.225Z,3.75
2023-01-19T14:35:07.401Z,2.17
2023-01-19T14:37:37.859Z,2.53
2023-01-19T14:40:21.817Z,2.63
2023-01-19T14:43:07.970Z,2.80
2023-01-19T14:45:39.092Z,2.57
2023-01-19T14:48:08.048Z,3.10
2023-01-19T14:50:46.069Z,3.72
2023-01-19T14:53:18.325Z,5.20
2023-01-19T14:55:54.762Z,6.05
2023-01-19T14:58:24.725Z,7.85
2023-01-19T15:00:56.221Z,6.97
2023-01-19T15:03:34.883Z,7.13
2023-01-19T15:06:21.266Z,5.73
2023-01-19T15:08:53.715Z,5.55
2023-01-19T15:11:28.423Z,6.30
2023-01-19T15:13:59.223Z,5.63
2023-01-19T15:16:27.973Z,6.18
2023-01-19T15:18:55.590Z,6.45
2023-01-19T15:21:26.862Z,5.57
2023-01-19T15:24:03.801Z,5.05
2023-01-19T15:26:30.972Z,4.90
2023-01-19T15:28:58.083Z,4.30
2023-01-19T15:31:28.319Z,4.10
2023-01-19T15:33:55.638Z,4.47
2023-01-19T15:36:24.520Z,3.70
2023-01-19T15:38:51.696Z,8.23
2023-01-19T15:41:30.367Z,8.73
2023-01-19T15:43:58.051Z,3.50
2023-01-19T15:46:26.054Z,3.47
2023-01-19T15:48:53.504Z,4.95
2023-01-19T15:51:25.865Z,4.40
2023-01-19T15:53:55.265Z,3.92
2023-01-19T15:56:27.541Z,3.67
2023-01-19T15:58:57.722Z,3.78
2023-01-19T16:01:35.315Z,4.10
2023-01-19T16:04:07.614Z,4.05
2023-01-19T16:06:34.841Z,7.10
2023-01-19T16:09:04.366Z,7.00
2023-01-19T16:16:09.560Z,19.38
2023-01-19T16:18:36.671Z,23.50
2023-01-19T16:21:03.716Z,26.77
2023-01-19T16:23:30.699Z,24.55
2023-01-19T16:26:07.973Z,19.20
2023-01-19T16:28:36.044Z,18.27
2023-01-19T16:31:03.596Z,16.35
2023-01-19T16:33:31.084Z,15.48
2023-01-19T16:35:57.910Z,13.30
2023-01-19T16:38:25.369Z,13.55
2023-01-19T16:40:52.216Z,11.38
2023-01-19T16:43:19.130Z,10.50
2023-01-19T16:46:01.247Z,10.90
2023-01-19T16:48:29.055Z,11.27
2023-01-19T16:51:06.841Z,10.27
2023-01-19T16:53:35.558Z,12.88
2023-01-19T16:56:14.358Z,12.13
2023-01-19T16:58:43.793Z,14.02
2023-01-19T17:01:13.445Z,14.10
2023-01-19T17:03:42.574Z,13.80
2023-01-19T17:06:12.521Z,13.25
2023-01-19T17:08:40.007Z,13.73
2023-01-19T17:11:21.310Z,15.93
2023-01-19T17:14:00.185Z,17.08
2023-01-19T17:16:29.536Z,20.48
2023-01-19T17:18:58.002Z,23.92
2023-01-19T17:21:25.266Z,28.00
2023-01-19T17:23:54.500Z,29.48
2023-01-19T17:26:22.877Z,20.23
2023-01-19T17:28:49.744Z,20.27
2023-01-19T17:31:19.804Z,16.02
2023-01-19T17:33:49.245Z,21.40
2023-01-19T17:36:22.752Z,21.98
2023-01-19T17:38:50.389Z,24.02
2023-01-19T17:45:37.029Z,21.60
2023-01-19T17:48:05.276Z,18.67
2023-01-19T17:50:34.836Z,12.38
2023-01-19T17:53:26.210Z,9.48
2023-01-19T17:56:14.791Z,7.88
2023-01-19T17:58:42.572Z,8.98
2023-01-19T18:16:20.810Z,14.15
2023-01-19T18:19:26.699Z,15.43
2023-01-19T18:21:53.749Z,15.18
2023-01-19T18:24:20.606Z,14.25
2023-01-19T18:26:48.353Z,15.15
2023-01-19T18:29:17.050Z,15.75
2023-01-19T18:31:44.199Z,15.90
2023-01-19T18:34:11.312Z,16.67
2023-01-19T18:36:46.810Z,17.70
2023-01-19T18:39:13.896Z,16.52
2023-01-19T18:41:42.453Z,16.95
2023-01-19T18:44:09.992Z,19.08
2023-01-19T18:46:39.931Z,21.17
2023-01-19T18:49:07.163Z,20.00
2023-01-19T18:51:34.412Z,21.00
2023-01-19T18:54:56.838Z,23.77
2023-01-19T18:57:24.232Z,22.85
2023-01-19T18:59:51.471Z,22.60
2023-01-19T19:02:18.745Z,21.20
2023-01-19T19:04:48.066Z,24.15
2023-01-19T19:07:15.161Z,19.88
2023-01-19T19:09:42.121Z,23.33
2023-01-19T19:12:19.659Z,20.77
2023-01-19T19:14:46.571Z,21.30
2023-01-19T19:17:14.037Z,19.23
2023-01-19T19:19:41.098Z,18.95
2023-01-19T19:22:08.158Z,18.63
2023-01-19T19:24:36.059Z,18.65
2023-01-19T19:27:03.777Z,17.20
2023-01-19T19:29:31.689Z,17.65
2023-01-19T19:31:59.198Z,19.65
2023-01-19T19:34:26.477Z,18.60
2023-01-19T19:36:53.598Z,20.30
2023-01-19T19:39:20.607Z,20.55
2023-01-19T19:41:47.849Z,18.08
2023-01-19T19:44:15.060Z,14.70
2023-01-19T19:46:42.194Z,14.98
2023-01-19T19:49:09.288Z,13.57
2023-01-19T19:51:36.407Z,12.38
2023-01-19T19:54:03.516Z,13.23
2023-01-19T19:56:34.476Z,12.07
2023-01-19T19:59:01.778Z,10.07
2023-01-19T20:01:32.834Z,10.00
2023-01-19T20:04:06.725Z,8.07
2023-01-19T20:06:39.207Z,7.80
2023-01-19T20:09:16.054Z,8.75
2023-01-19T20:11:46.095Z,10.02
2023-01-19T20:14:16.567Z,8.95
2023-01-19T20:16:44.755Z,7.07
2023-01-19T20:19:11.933Z,7.63
2023-01-19T20:21:41.986Z,8.75
2023-01-19T20:24:14.778Z,8.27
2023-01-19T20:26:52.032Z,8.77
2023-01-19T20:29:20.738Z,8.60
2023-01-19T20:31:51.723Z,6.78
2023-01-19T20:34:22.887Z,7.03
2023-01-19T20:36:52.157Z,7.38
2023-01-19T20:39:22.745Z,6.97
2023-01-19T20:41:51.360Z,6.57
2023-01-19T20:44:27.129Z,5.82
2023-01-19T20:46:55.296Z,6.33
2023-01-19T20:49:22.533Z,5.50
2023-01-19T20:51:51.413Z,5.38
2023-01-19T20:54:20.639Z,5.10
2023-01-19T20:56:48.174Z,5.30
2023-01-19T20:59:15.296Z,4.32
2023-01-19T21:01:42.882Z,4.60
2023-01-19T21:04:12.912Z,4.75
2023-01-19T21:06:40.917Z,5.07
2023-01-19T21:09:09.797Z,4.93
2023-01-19T21:11:38.600Z,5.10
2023-01-19T21:14:06.250Z,5.15
2023-01-19T21:16:52.144Z,5.60
2023-01-19T21:19:19.225Z,5.43
2023-01-19T21:21:46.347Z,6.00
2023-01-19T21:24:13.498Z,6.05
2023-01-19T21:26:41.873Z,5.68
2023-01-19T21:29:13.537Z,5.78
2023-01-19T21:31:41.517Z,6.70
2023-01-19T21:34:09.279Z,6.28
2023-01-19T21:36:37.907Z,6.28
2023-01-19T21:39:06.582Z,7.22
2023-01-19T21:41:36.046Z,7.22
2023-01-19T21:44:03.395Z,7.18
2023-01-19T21:50:56.332Z,6.95
2023-01-19T21:53:23.287Z,7.63
2023-01-19T21:55:50.588Z,7.13
2023-01-19T21:58:17.563Z,7.43
2023-01-19T22:00:45.662Z,6.93
2023-01-19T22:03:12.625Z,7.53
2023-01-19T22:09:27.367Z,7.70
2023-01-19T22:11:54.429Z,8.45
2023-01-19T22:14:21.268Z,9.52
2023-01-19T22:16:48.180Z,13.27
2023-01-19T22:19:15.046Z,14.40
2023-01-19T22:21:41.982Z,16.70
2023-01-19T22:24:31.925Z,17.58
2023-01-19T22:26:59.086Z,16.05
2023-01-19T22:29:47.577Z,17.25
2023-01-19T22:32:14.553Z,15.60
2023-01-19T22:34:41.487Z,15.90
2023-01-19T22:37:08.760Z,10.65
2023-01-19T22:39:35.778Z,9.80
2023-01-19T22:42:02.789Z,8.18
2023-01-19T22:44:29.979Z,8.82
2023-01-19T22:46:56.772Z,8.73
2023-01-19T22:49:23.772Z,8.68
2023-01-19T22:51:50.765Z,9.88
2023-01-19T22:54:17.590Z,9.57
2023-01-19T22:56:45.906Z,9.93
2023-01-19T22:59:13.020Z,9.50
2023-01-19T23:01:44.127Z,9.43
2023-01-19T23:04:13.960Z,10.38
2023-01-19T23:06:41.049Z,9.63
2023-01-19T23:09:12.269Z,9.95
2023-01-19T23:11:41.931Z,10.30
2023-01-19T23:14:14.049Z,9.70
2023-01-19T23:16:43.796Z,10.57
2023-01-19T23:19:12.306Z,9.32
2023-01-19T23:21:39.721Z,9.95
2023-01-19T23:24:07.322Z,8.73
2023-01-19T23:26:40.379Z,9.32
2023-01-19T23:29:13.155Z,9.93
2023-01-19T23:31:44.057Z,9.30
2023-01-19T23:34:12.609Z,8.63
2023-01-19T23:36:41.387Z,7.63
2023-01-19T23:39:16.800Z,7.10
2023-01-19T23:41:43.889Z,6.95
2023-01-19T23:44:10.808Z,7.75
2023-01-19T23:46:38.122Z,8.35
2023-01-19T23:49:05.077Z,8.10
2023-01-19T23:51:33.465Z,8.80
2023-01-19T23:54:01.278Z,6.45
2023-01-19T23:56:32.017Z,5.30
2023-01-19T23:59:01.917Z,5.85
